Time;durP1;ratioP1;P1;durP2;ratioP2;P2;SDS_P1;SDS_P2;PMS_P1;PMS_P2;Temp;Humidity;BMP_temperature;BMP_pressure;BME280_temperature;BME280_humidity;BME280_pressure;Samples;Min_cycle;Max_cycle;Signal;HPM_P1;HPM_P2
2023/04/19 00:00:42;;;;;;;6.88;3.70;;;7.80;94.90;;;;;;4992261;28;20069;-68
2023/04/19 00:03:08;;;;;;;8.82;5.15;;;7.90;94.80;;;;;;4993301;28;20049;-69
2023/04/19 00:05:34;;;;;;;6.43;3.33;;;7.90;94.40;;;;;;4995203;28;20030;-69
2023/04/19 00:08:00;;;;;;;6.38;3.75;;;7.90;94.10;;;;;;4994295;28;20544;-69
2023/04/19 00:10:26;;;;;;;7.22;4.35;;;7.80;94.00;;;;;;4991995;28;20034;-69
2023/04/19 00:12:51;;;;;;;5.75;3.38;;;7.90;94.10;;;;;;4993278;28;20041;-69
2023/04/19 00:15:17;;;;;;;9.25;4.32;;;7.80;93.80;;;;;;4991562;28;20034;-70
2023/04/19 00:17:43;;;;;;;5.72;3.42;;;7.80;93.80;;;;;;4990818;28;21813;-69
2023/04/19 00:20:11;;;;;;;6.55;3.95;;;7.90;93.70;;;;;;4995065;28;20088;-69
2023/04/19 00:22:37;;;;;;;7.15;4.28;;;7.80;93.70;;;;;;4990373;28;20516;-69
2023/04/19 00:25:03;;;;;;;7.22;4.07;;;7.90;93.80;;;;;;4997420;28;20033;-69
2023/04/19 00:27:29;;;;;;;7.82;3.40;;;7.90;93.40;;;;;;4992807;28;20124;-68
2023/04/19 00:29:56;;;;;;;5.10;3.13;;;7.90;93.50;;;;;;4992260;28;20053;-68
2023/04/19 00:32:22;;;;;;;7.03;3.83;;;8.00;93.10;;;;;;4988542;28;20030;-70
2023/04/19 00:34:48;;;;;;;6.10;3.22;;;8.00;93.20;;;;;;4991410;28;20474;-69
2023/04/19 00:37:13;;;;;;;8.43;3.42;;;7.90;93.20;;;;;;4989721;28;20022;-69
2023/04/19 00:39:39;;;;;;;5.15;3.28;;;8.00;92.70;;;;;;4991859;28;20493;-68
2023/04/19 00:42:05;;;;;;;6.43;2.85;;;7.90;92.90;;;;;;4992522;28;20466;-69
2023/04/19 00:44:30;;;;;;;5.13;3.33;;;7.90;92.80;;;;;;4992595;28;20367;-69
2023/04/19 00:46:56;;;;;;;5.22;2.92;;;7.90;92.50;;;;;;4993583;28;20073;-69
2023/04/19 00:49:23;;;;;;;9.07;3.10;;;7.90;92.40;;;;;;4991279;28;20030;-75
2023/04/19 00:51:49;;;;;;;5.88;2.90;;;7.80;92.40;;;;;;4989072;28;20512;-72
2023/04/19 00:54:16;;;;;;;4.57;2.45;;;7.90;92.30;;;;;;4993500;28;20034;-72
2023/04/19 00:56:44;;;;;;;4.93;3.03;;;7.80;92.00;;;;;;4993799;28;20061;-73
2023/04/19 00:59:10;;;;;;;4.43;2.92;;;7.80;92.20;;;;;;4990697;28;20030;-71
2023/04/19 01:01:37;;;;;;;4.25;3.13;;;7.80;92.10;;;;;;4992236;28;20069;-73
2023/04/19 01:04:04;;;;;;;5.63;3.13;;;7.70;92.10;;;;;;5004430;28;20022;-72
2023/04/19 01:06:32;;;;;;;7.93;3.58;;;7.70;92.10;;;;;;4993731;28;20038;-72
2023/04/19 01:08:58;;;;;;;4.22;2.72;;;7.70;92.20;;;;;;4992234;28;20030;-72
2023/04/19 01:11:24;;;;;;;4.75;3.05;;;7.70;91.80;;;;;;4994346;28;20017;-72
2023/04/19 01:13:50;;;;;;;4.03;2.65;;;7.70;92.10;;;;;;4993890;28;20049;-72
2023/04/19 01:16:16;;;;;;;5.30;3.30;;;7.60;92.00;;;;;;4993755;28;20071;-72
2023/04/19 01:18:41;;;;;;;9.13;3.70;;;7.60;92.00;;;;;;4990593;28;20121;-74
2023/04/19 01:21:08;;;;;;;4.72;2.92;;;7.60;91.90;;;;;;4993573;28;21882;-72
2023/04/19 01:23:34;;;;;;;4.93;3.10;;;7.50;92.00;;;;;;4992769;28;20034;-72
2023/04/19 01:26:01;;;;;;;5.10;2.90;;;7.50;91.80;;;;;;4994517;28;20030;-72
2023/04/19 01:28:27;;;;;;;5.10;3.05;;;7.50;91.90;;;;;;4995032;28;20037;-72
2023/04/19 01:30:53;;;;;;;5.70;2.97;;;7.50;92.20;;;;;;4992382;28;20421;-72
2023/04/19 01:33:19;;;;;;;8.13;3.30;;;7.40;91.80;;;;;;4991917;28;20026;-72
2023/04/19 01:35:47;;;;;;;7.65;3.00;;;7.40;91.80;;;;;;4992493;28;20379;-73
2023/04/19 01:38:12;;;;;;;5.20;3.50;;;7.40;91.90;;;;;;4994665;28;20029;-73
2023/04/19 01:40:38;;;;;;;6.32;2.88;;;7.30;91.90;;;;;;4991847;28;21230;-71
2023/04/19 01:43:04;;;;;;;5.63;3.85;;;7.40;91.90;;;;;;4993452;28;20042;-73
2023/04/19 01:45:30;;;;;;;7.03;3.28;;;7.30;91.80;;;;;;4994123;28;20032;-71
2023/04/19 01:47:56;;;;;;;4.63;2.92;;;7.20;91.90;;;;;;4990079;28;20034;-71
2023/04/19 01:50:21;;;;;;;5.43;2.88;;;7.20;92.00;;;;;;4991845;28;20045;-71
2023/04/19 01:52:47;;;;;;;5.97;2.92;;;7.10;92.00;;;;;;4993406;28;20030;-71
2023/04/19 01:55:12;;;;;;;5.60;3.05;;;7.10;92.00;;;;;;4990463;28;20050;-71
2023/04/19 01:57:38;;;;;;;5.80;3.45;;;7.10;92.10;;;;;;4997567;28;20022;-71
2023/04/19 02:00:05;;;;;;;5.13;3.45;;;7.10;92.10;;;;;;4991887;28;20659;-71
2023/04/19 02:02:30;;;;;;;5.88;3.00;;;7.10;92.20;;;;;;4991821;28;20030;-71
2023/04/19 02:04:56;;;;;;;5.43;3.25;;;7.00;92.20;;;;;;4989715;28;20553;-70
2023/04/19 02:07:22;;;;;;;5.05;3.25;;;7.00;92.30;;;;;;4993007;28;20148;-71
2023/04/19 02:09:47;;;;;;;7.18;3.10;;;7.00;92.30;;;;;;4992562;28;20176;-71
2023/04/19 02:12:13;;;;;;;6.25;3.38;;;7.00;92.40;;;;;;5007041;28;20049;-71
2023/04/19 02:14:38;;;;;;;3.65;2.60;;;7.00;92.50;;;;;;4992671;28;20038;-71
2023/04/19 02:17:04;;;;;;;5.05;3.40;;;6.90;92.50;;;;;;4992209;28;20083;-71
2023/04/19 02:19:30;;;;;;;4.32;3.10;;;6.90;92.60;;;;;;4989317;28;20023;-72
2023/04/19 02:21:56;;;;;;;6.18;3.60;;;6.90;92.70;;;;;;4995818;28;20049;-71
2023/04/19 02:24:23;;;;;;;7.40;4.07;;;6.80;92.70;;;;;;4995180;28;20034;-71
2023/04/19 02:26:49;;;;;;;6.53;3.63;;;6.70;92.80;;;;;;4994809;28;20058;-71
2023/04/19 02:29:15;;;;;;;4.65;3.22;;;6.80;92.80;;;;;;4995591;28;20434;-71
2023/04/19 02:31:41;;;;;;;5.65;3.35;;;6.70;92.90;;;;;;4995932;28;20137;-71
2023/04/19 02:34:07;;;;;;;6.15;3.50;;;6.70;92.90;;;;;;4994335;28;20036;-71
2023/04/19 02:36:33;;;;;;;5.05;3.33;;;6.70;93.00;;;;;;4995511;28;20058;-71
2023/04/19 02:38:58;;;;;;;7.40;4.00;;;6.60;93.10;;;;;;4995817;28;20072;-71
2023/04/19 02:41:24;;;;;;;7.57;3.83;;;6.60;93.10;;;;;;4995895;28;20125;-70
2023/04/19 02:43:50;;;;;;;5.20;3.03;;;6.60;93.10;;;;;;4995998;28;20490;-71
2023/04/19 02:46:16;;;;;;;5.68;2.97;;;6.60;93.30;;;;;;4997674;28;21992;-72
2023/04/19 02:48:41;;;;;;;6.18;3.75;;;6.50;93.30;;;;;;4991992;28;20033;-70
2023/04/19 02:51:07;;;;;;;5.88;2.85;;;6.50;93.40;;;;;;4996414;28;20053;-70
2023/04/19 02:53:33;;;;;;;5.82;2.80;;;6.50;93.40;;;;;;4994577;28;20083;-71
2023/04/19 02:55:59;;;;;;;4.95;3.00;;;6.50;93.50;;;;;;4995054;28;20038;-71
2023/04/19 02:58:25;;;;;;;5.88;3.05;;;6.50;93.50;;;;;;5003219;28;20034;-71
2023/04/19 03:00:50;;;;;;;5.95;3.08;;;6.50;93.60;;;;;;4994317;28;20054;-71
2023/04/19 03:03:16;;;;;;;4.22;2.53;;;6.40;93.70;;;;;;4996920;28;20482;-71
2023/04/19 03:05:42;;;;;;;5.15;2.80;;;6.40;93.80;;;;;;4995606;28;20038;-71
2023/04/19 03:08:09;;;;;;;5.82;3.10;;;6.40;93.80;;;;;;4994484;28;20030;-71
2023/04/19 03:10:35;;;;;;;4.30;2.53;;;6.40;93.90;;;;;;4997051;28;20046;-71
2023/04/19 03:13:00;;;;;;;6.90;3.50;;;6.40;93.90;;;;;;4995717;28;20038;-71
2023/04/19 03:15:26;;;;;;;8.73;3.05;;;6.40;94.00;;;;;;4997582;28;20040;-71
2023/04/19 03:17:52;;;;;;;4.35;2.55;;;6.40;94.00;;;;;;4996479;28;20116;-71
2023/04/19 03:20:17;;;;;;;4.72;2.95;;;6.40;94.00;;;;;;4995879;28;20128;-70
2023/04/19 03:22:43;;;;;;;6.05;2.83;;;6.40;94.00;;;;;;4995747;28;20122;-70
2023/04/19 03:25:11;;;;;;;3.83;2.72;;;6.40;94.10;;;;;;4997502;28;20033;-71
2023/04/19 03:27:37;;;;;;;6.00;3.05;;;6.40;94.10;;;;;;4995894;28;20731;-70
2023/04/19 03:30:03;;;;;;;6.63;3.13;;;6.40;94.10;;;;;;4995383;28;20106;-73
2023/04/19 03:32:28;;;;;;;7.20;2.70;;;6.40;94.10;;;;;;4997487;28;20045;-72
2023/04/19 03:34:54;;;;;;;4.82;2.60;;;6.40;94.20;;;;;;4991723;28;20029;-72
2023/04/19 03:37:20;;;;;;;6.50;3.30;;;6.40;94.20;;;;;;4994504;28;20399;-71
2023/04/19 03:39:45;;;;;;;4.30;2.50;;;6.40;94.30;;;;;;4991994;28;20136;-72
2023/04/19 03:42:11;;;;;;;6.00;3.03;;;6.40;94.30;;;;;;4995368;28;20116;-72
2023/04/19 03:44:37;;;;;;;4.50;2.33;;;6.30;94.50;;;;;;5006511;28;20054;-72
2023/04/19 03:47:02;;;;;;;6.40;2.58;;;6.30;94.50;;;;;;4996950;28;20029;-72
2023/04/19 03:49:28;;;;;;;8.73;2.42;;;6.30;94.50;;;;;;4992933;28;20498;-72
2023/04/19 03:51:53;;;;;;;4.25;2.88;;;6.30;94.90;;;;;;4995150;28;20113;-72
2023/04/19 03:54:19;;;;;;;4.05;2.38;;;6.20;95.10;;;;;;4991842;28;20108;-72
2023/04/19 03:56:45;;;;;;;4.80;2.60;;;6.20;95.00;;;;;;4996593;28;20029;-71
2023/04/19 03:59:10;;;;;;;6.05;2.92;;;6.20;95.00;;;;;;5001337;28;20052;-71
2023/04/19 04:01:40;;;;;;;6.65;2.53;;;6.20;95.10;;;;;;4994972;28;20379;-71
2023/04/19 04:04:07;;;;;;;6.55;2.53;;;6.10;95.20;;;;;;4990059;28;20034;-71
2023/04/19 04:06:33;;;;;;;4.50;2.65;;;6.20;95.30;;;;;;4997758;28;20125;-73
2023/04/19 04:08:59;;;;;;;7.28;3.15;;;6.10;95.50;;;;;;4995028;28;20106;-71
2023/04/19 04:11:25;;;;;;;5.43;2.75;;;6.10;95.50;;;;;;4996876;28;20029;-71
2023/04/19 04:13:50;;;;;;;3.80;2.60;;;6.10;95.60;;;;;;4993207;28;20042;-71
2023/04/19 04:16:16;;;;;;;5.22;2.50;;;6.10;95.60;;;;;;4993218;28;20026;-70
2023/04/19 04:18:41;;;;;;;5.88;2.55;;;6.20;95.60;;;;;;4992799;28;20038;-71
2023/04/19 04:21:07;;;;;;;6.65;2.53;;;6.10;95.70;;;;;;5006959;28;20034;-71
2023/04/19 04:23:32;;;;;;;4.95;2.80;;;6.10;95.70;;;;;;4994499;28;20378;-71
2023/04/19 04:25:59;;;;;;;4.72;2.20;;;6.20;95.70;;;;;;4993853;28;20029;-71
2023/04/19 04:28:28;;;;;;;3.58;2.30;;;6.10;95.70;;;;;;4992055;28;20033;-72
2023/04/19 04:30:56;;;;;;;5.05;2.45;;;6.20;95.80;;;;;;4994834;28;20030;-73
2023/04/19 04:33:24;;;;;;;6.28;2.30;;;6.20;95.90;;;;;;4995378;28;20500;-74
2023/04/19 04:35:50;;;;;;;4.40;2.72;;;6.10;96.00;;;;;;4996705;28;20456;-73
2023/04/19 04:38:16;;;;;;;6.28;2.75;;;6.20;96.30;;;;;;4993454;28;20109;-75
2023/04/19 04:40:42;;;;;;;4.47;3.10;;;6.20;96.20;;;;;;4994405;28;20034;-75
2023/04/19 04:43:07;;;;;;;10.60;3.63;;;6.10;96.20;;;;;;4992172;28;20505;-72
2023/04/19 04:45:33;;;;;;;3.88;2.33;;;6.10;96.80;;;;;;4994314;28;20486;-73
2023/04/19 04:47:58;;;;;;;4.68;2.60;;;6.10;96.60;;;;;;4994794;28;20046;-72
2023/04/19 04:50:24;;;;;;;5.30;2.72;;;6.10;96.90;;;;;;4996818;28;20282;-72
2023/04/19 04:52:52;;;;;;;5.18;2.55;;;6.10;97.00;;;;;;4993963;28;20388;-73
2023/04/19 04:55:18;;;;;;;4.82;2.92;;;6.00;96.90;;;;;;4995101;28;20036;-71
2023/04/19 04:57:43;;;;;;;4.35;2.10;;;6.10;97.10;;;;;;4998139;28;20557;-71
2023/04/19 05:00:10;;;;;;;3.72;2.25;;;6.10;97.10;;;;;;4993608;28;20057;-72
2023/04/19 05:02:37;;;;;;;5.60;3.13;;;6.10;97.00;;;;;;4993537;28;20049;-70
2023/04/19 05:05:02;;;;;;;6.90;2.83;;;6.10;97.10;;;;;;4994432;28;20473;-71
2023/04/19 05:07:28;;;;;;;6.85;3.55;;;6.10;97.40;;;;;;4988220;28;20723;-72
2023/04/19 05:09:54;;;;;;;7.18;3.65;;;6.10;97.30;;;;;;4993807;28;20028;-72
2023/04/19 05:12:19;;;;;;;6.75;3.15;;;6.10;97.30;;;;;;4994688;28;20026;-72
2023/04/19 05:14:45;;;;;;;7.00;3.20;;;6.10;97.50;;;;;;4993857;28;20078;-72
2023/04/19 05:17:10;;;;;;;5.18;2.70;;;6.20;97.40;;;;;;4993393;28;20041;-71
2023/04/19 05:19:36;;;;;;;5.88;2.60;;;6.20;97.40;;;;;;4992807;28;20034;-72
2023/04/19 05:22:01;;;;;;;6.70;2.63;;;6.30;97.40;;;;;;4995217;28;20531;-72
2023/04/19 05:24:27;;;;;;;4.47;2.75;;;6.30;97.40;;;;;;4994026;28;20382;-71
2023/04/19 05:26:53;;;;;;;4.65;2.65;;;6.30;97.60;;;;;;4994615;28;20079;-72
2023/04/19 05:29:18;;;;;;;4.95;2.40;;;6.30;97.80;;;;;;4992417;28;20156;-72
2023/04/19 05:31:44;;;;;;;5.60;2.90;;;6.30;97.80;;;;;;4993365;28;20033;-72
2023/04/19 05:34:09;;;;;;;6.25;2.83;;;6.30;98.00;;;;;;4994850;28;20112;-72
2023/04/19 05:36:35;;;;;;;5.78;2.47;;;6.20;98.10;;;;;;4993486;28;20095;-73
2023/04/19 05:39:01;;;;;;;4.20;2.58;;;6.20;98.00;;;;;;4993052;28;20034;-72
2023/04/19 05:41:26;;;;;;;7.72;3.42;;;6.30;98.10;;;;;;4994190;28;20646;-72
2023/04/19 05:43:52;;;;;;;3.97;2.08;;;6.30;98.00;;;;;;4991211;28;20042;-71
2023/04/19 05:46:17;;;;;;;5.32;2.35;;;6.30;98.10;;;;;;4995406;28;20033;-71
2023/04/19 05:48:43;;;;;;;8.07;2.35;;;6.30;98.00;;;;;;4991636;28;20520;-72
2023/04/19 05:51:09;;;;;;;4.78;2.63;;;6.40;98.00;;;;;;4989562;28;20160;-73
2023/04/19 05:53:34;;;;;;;4.10;2.53;;;6.40;98.00;;;;;;4991210;28;20475;-72
2023/04/19 05:56:00;;;;;;;4.65;2.17;;;6.40;98.00;;;;;;4993318;28;20545;-72
2023/04/19 05:58:25;;;;;;;6.57;1.98;;;6.50;98.00;;;;;;4993369;28;20034;-72
2023/04/19 06:00:51;;;;;;;4.97;2.38;;;6.50;98.10;;;;;;4994986;28;20102;-72
2023/04/19 06:03:17;;;;;;;4.78;2.42;;;6.50;98.10;;;;;;4994465;28;20046;-72
2023/04/19 06:05:42;;;;;;;4.43;2.70;;;6.60;98.20;;;;;;4993651;28;20022;-71
2023/04/19 06:08:08;;;;;;;3.97;2.03;;;6.60;98.20;;;;;;4992188;28;20026;-71
2023/04/19 06:10:35;;;;;;;4.47;2.22;;;6.70;98.10;;;;;;4993868;28;20037;-73
2023/04/19 06:13:01;;;;;;;5.72;2.53;;;6.70;98.10;;;;;;4991000;28;20501;-71
2023/04/19 06:15:26;;;;;;;5.95;2.58;;;6.80;98.10;;;;;;4995640;28;20037;-71
2023/04/19 06:17:52;;;;;;;8.88;2.97;;;6.80;98.10;;;;;;4993617;28;20061;-71
2023/04/19 06:20:17;;;;;;;5.40;2.47;;;6.80;98.00;;;;;;5006549;28;20034;-70
2023/04/19 06:22:47;;;;;;;4.13;2.30;;;6.80;97.80;;;;;;4990207;28;20046;-71
2023/04/19 06:25:13;;;;;;;4.20;2.25;;;6.90;97.80;;;;;;4990992;28;20030;-71
2023/04/19 06:27:39;;;;;;;4.32;2.25;;;7.00;97.80;;;;;;4990084;28;20493;-72
2023/04/19 06:30:05;;;;;;;4.75;2.42;;;7.00;97.70;;;;;;4992870;28;20105;-72
2023/04/19 06:32:31;;;;;;;6.57;3.20;;;7.10;97.70;;;;;;4991287;28;20034;-72
2023/04/19 06:34:57;;;;;;;5.10;2.20;;;7.20;97.60;;;;;;4992129;28;22123;-71
2023/04/19 06:37:22;;;;;;;3.88;2.13;;;7.30;97.60;;;;;;4991052;28;20126;-71
2023/04/19 06:39:48;;;;;;;9.52;2.90;;;7.30;97.50;;;;;;4990848;28;20046;-72
2023/04/19 06:42:13;;;;;;;7.38;2.28;;;7.40;97.40;;;;;;4990474;28;20096;-74
2023/04/19 06:44:39;;;;;;;6.70;2.70;;;7.40;97.10;;;;;;4992341;28;20393;-70
2023/04/19 06:47:05;;;;;;;6.57;2.83;;;7.50;97.10;;;;;;5003473;28;20507;-69
2023/04/19 06:49:30;;;;;;;4.38;2.45;;;7.50;96.90;;;;;;4990368;28;20026;-71
2023/04/19 06:51:57;;;;;;;6.20;3.03;;;7.60;96.90;;;;;;4991073;28;20030;-72
2023/04/19 06:54:23;;;;;;;5.43;2.50;;;7.70;96.60;;;;;;4992590;28;20082;-71
2023/04/19 06:56:49;;;;;;;3.20;2.20;;;7.70;96.50;;;;;;4991163;28;20109;-72
2023/04/19 06:59:17;;;;;;;4.13;2.35;;;7.80;96.30;;;;;;4991596;28;20030;-73
2023/04/19 07:01:43;;;;;;;3.13;2.00;;;7.80;96.40;;;;;;4994003;28;20037;-71
2023/04/19 07:04:09;;;;;;;8.50;2.90;;;8.00;96.30;;;;;;4992015;28;20034;-72
2023/04/19 07:06:36;;;;;;;5.18;2.53;;;8.00;95.70;;;;;;4989991;28;20054;-71
2023/04/19 07:09:03;;;;;;;4.13;2.20;;;8.10;95.60;;;;;;4994104;28;20092;-71
2023/04/19 07:11:29;;;;;;;5.97;2.20;;;8.10;95.50;;;;;;4990504;28;20030;-72
2023/04/19 07:13:55;;;;;;;7.75;2.72;;;8.20;95.40;;;;;;4993191;28;20486;-72
2023/04/19 07:16:20;;;;;;;5.72;2.38;;;8.40;95.30;;;;;;4992216;28;20045;-71
2023/04/19 07:18:46;;;;;;;8.23;3.03;;;8.50;94.60;;;;;;4993277;28;20026;-72
2023/04/19 07:21:12;;;;;;;5.05;2.05;;;8.50;95.00;;;;;;4991936;28;20105;-71
2023/04/19 07:23:38;;;;;;;5.55;2.65;;;8.60;94.30;;;;;;4993458;28;20034;-72
2023/04/19 07:26:04;;;;;;;5.32;2.60;;;8.70;94.30;;;;;;4991622;28;20020;-71
2023/04/19 07:28:29;;;;;;;4.45;2.10;;;8.70;93.90;;;;;;4994546;28;20121;-71
2023/04/19 07:30:56;;;;;;;4.03;2.15;;;8.80;93.50;;;;;;4997963;28;20034;-71
2023/04/19 07:33:23;;;;;;;5.03;2.60;;;8.90;93.60;;;;;;4991991;28;20107;-71
2023/04/19 07:35:50;;;;;;;6.97;2.22;;;9.00;93.40;;;;;;5007940;28;20030;-71
2023/04/19 07:38:16;;;;;;;7.25;2.55;;;9.10;93.40;;;;;;4993732;28;20034;-71
2023/04/19 07:40:41;;;;;;;3.45;2.20;;;9.20;93.10;;;;;;4992778;28;20272;-71
2023/04/19 07:43:07;;;;;;;4.97;2.42;;;9.20;92.20;;;;;;4993383;28;20065;-71
2023/04/19 07:45:33;;;;;;;7.47;2.97;;;9.30;92.20;;;;;;4993564;28;20100;-71
2023/04/19 07:47:58;;;;;;;5.18;2.80;;;9.30;92.40;;;;;;4996051;28;20060;-71
2023/04/19 07:50:25;;;;;;;4.03;2.42;;;9.50;92.40;;;;;;4994846;28;20041;-71
2023/04/19 07:52:51;;;;;;;5.05;2.50;;;9.50;92.00;;;;;;5005696;28;20025;-71
2023/04/19 07:55:16;;;;;;;7.07;3.00;;;9.60;91.80;;;;;;4994287;28;20022;-71
2023/04/19 07:57:46;;;;;;;5.43;2.55;;;9.70;91.50;;;;;;4994808;28;20386;-71
2023/04/19 08:00:14;;;;;;;5.45;2.38;;;9.80;91.80;;;;;;4994571;28;20490;-71
2023/04/19 08:02:43;;;;;;;6.88;3.03;;;9.80;90.80;;;;;;4999053;28;20120;-71
2023/04/19 08:05:09;;;;;;;5.03;2.47;;;9.90;90.40;;;;;;4994257;28;20034;-70
2023/04/19 08:07:34;;;;;;;6.40;2.85;;;10.00;90.60;;;;;;4991929;28;20080;-71
2023/04/19 08:10:00;;;;;;;4.28;2.92;;;10.00;89.30;;;;;;4996241;28;20080;-71
2023/04/19 08:12:27;;;;;;;4.53;2.78;;;10.00;90.00;;;;;;4993893;28;20038;-72
2023/04/19 08:14:53;;;;;;;4.00;2.33;;;10.10;89.20;;;;;;5008070;28;20080;-71
2023/04/19 08:17:20;;;;;;;5.15;2.40;;;10.20;89.50;;;;;;4987144;28;20367;-71
2023/04/19 08:19:48;;;;;;;9.15;2.80;;;10.20;88.80;;;;;;4995458;28;20553;-71
2023/04/19 08:22:15;;;;;;;4.32;1.85;;;10.30;87.80;;;;;;4995446;28;20045;-71
2023/04/19 08:24:41;;;;;;;5.18;2.70;;;10.40;88.20;;;;;;4994766;28;20061;-71
2023/04/19 08:27:08;;;;;;;4.43;2.38;;;10.50;88.40;;;;;;4996181;28;20184;-71
2023/04/19 08:29:33;;;;;;;6.03;2.25;;;10.60;88.60;;;;;;4992011;28;20389;-69
2023/04/19 08:32:00;;;;;;;5.80;2.53;;;10.60;84.80;;;;;;4994759;28;20579;-70
2023/04/19 08:34:26;;;;;;;4.55;2.20;;;10.60;85.10;;;;;;4995043;28;20145;-69
2023/04/19 08:36:52;;;;;;;5.22;2.67;;;10.60;85.50;;;;;;4993914;28;20113;-69
2023/04/19 08:39:17;;;;;;;4.22;2.70;;;10.70;85.20;;;;;;5008986;28;20032;-68
2023/04/19 08:41:43;;;;;;;8.27;3.25;;;10.80;84.90;;;;;;4994101;28;20494;-70
2023/04/19 08:44:11;;;;;;;6.47;2.53;;;10.80;84.80;;;;;;4993893;28;20034;-70
2023/04/19 08:46:37;;;;;;;6.10;2.67;;;10.80;84.50;;;;;;4993986;28;20113;-70
2023/04/19 08:49:04;;;;;;;7.80;3.72;;;10.90;84.20;;;;;;4994139;28;20040;-70
2023/04/19 08:51:31;;;;;;;3.65;2.53;;;10.90;84.20;;;;;;4993144;28;20022;-70
2023/04/19 08:53:58;;;;;;;8.25;3.83;;;11.00;84.80;;;;;;4991723;28;20033;-70
2023/04/19 08:56:25;;;;;;;5.43;2.72;;;11.10;84.20;;;;;;4995868;28;20030;-70
2023/04/19 08:58:51;;;;;;;5.63;2.83;;;11.30;83.10;;;;;;4995795;28;20033;-70
2023/04/19 09:01:16;;;;;;;7.18;3.05;;;11.30;83.80;;;;;;4991971;28;20588;-70
2023/04/19 09:03:45;;;;;;;4.32;2.58;;;11.40;82.60;;;;;;4992669;28;20042;-70
2023/04/19 09:06:11;;;;;;;6.13;2.80;;;11.50;83.20;;;;;;4992997;28;20026;-70
2023/04/19 09:08:38;;;;;;;6.18;2.80;;;11.60;82.70;;;;;;4993375;28;20490;-70
2023/04/19 09:11:03;;;;;;;6.72;2.60;;;11.60;82.00;;;;;;4995497;28;20027;-70
2023/04/19 09:13:30;;;;;;;3.67;2.50;;;11.70;82.10;;;;;;4989453;28;20048;-70
2023/04/19 09:15:56;;;;;;;4.93;2.90;;;11.80;83.00;;;;;;4993227;28;20398;-69
2023/04/19 09:18:26;;;;;;;6.05;2.28;;;11.80;80.90;;;;;;4993360;28;20041;-70
2023/04/19 09:20:56;;;;;;;6.15;2.88;;;11.80;79.50;;;;;;4991148;28;20076;-69
2023/04/19 09:23:24;;;;;;;5.50;2.90;;;11.80;79.80;;;;;;4995219;28;20042;-70
2023/04/19 09:26:00;;;;;;;6.93;3.13;;;11.80;79.00;;;;;;4991675;28;20088;-69
2023/04/19 09:28:27;;;;;;;4.80;2.67;;;11.90;79.60;;;;;;4991860;28;20168;-70
2023/04/19 09:30:54;;;;;;;5.45;2.50;;;12.00;79.20;;;;;;4991568;28;20549;-70
2023/04/19 09:33:38;;;;;;;4.72;2.75;;;12.00;78.70;;;;;;4993133;28;20038;-70
2023/04/19 09:36:04;;;;;;;5.75;2.90;;;12.00;78.80;;;;;;4990389;28;20052;-70
2023/04/19 09:38:45;;;;;;;11.40;2.80;;;12.00;79.30;;;;;;4990963;28;20038;-70
2023/04/19 09:41:10;;;;;;;8.80;3.30;;;12.10;78.20;;;;;;4991878;28;20486;-70
2023/04/19 09:43:36;;;;;;;6.28;3.17;;;12.10;78.20;;;;;;4991934;28;20053;-70
2023/04/19 09:46:02;;;;;;;6.43;2.95;;;12.20;78.70;;;;;;4991949;28;20050;-70
2023/04/19 09:48:27;;;;;;;5.38;2.85;;;12.20;79.10;;;;;;4993478;28;20041;-69
2023/04/19 09:50:58;;;;;;;4.28;2.63;;;12.30;78.40;;;;;;4989624;28;20096;-70
2023/04/19 09:53:25;;;;;;;4.40;2.85;;;12.30;78.80;;;;;;4990053;28;20057;-69
2023/04/19 09:55:51;;;;;;;4.70;2.80;;;12.30;78.40;;;;;;4990819;28;20068;-70
2023/04/19 09:58:18;;;;;;;5.88;3.08;;;12.20;76.70;;;;;;4994603;28;20031;-69
2023/04/19 10:00:46;;;;;;;8.25;3.38;;;12.10;76.70;;;;;;4990551;28;20072;-69
2023/04/19 10:03:20;;;;;;;6.45;3.95;;;11.90;77.20;;;;;;4990268;28;20050;-70
2023/04/19 10:05:47;;;;;;;5.10;2.83;;;11.90;77.20;;;;;;4991314;28;20026;-70
2023/04/19 10:08:13;;;;;;;3.90;2.53;;;11.90;77.90;;;;;;4992254;28;20725;-71
2023/04/19 10:10:40;;;;;;;5.40;2.95;;;11.90;77.70;;;;;;4990771;28;20121;-71
2023/04/19 10:13:09;;;;;;;6.82;3.25;;;11.90;77.30;;;;;;4992895;28;20037;-69
2023/04/19 10:15:36;;;;;;;6.97;2.80;;;11.90;77.50;;;;;;4992718;28;20422;-69
2023/04/19 10:18:03;;;;;;;6.03;2.67;;;12.00;77.00;;;;;;4993466;28;20087;-70
2023/04/19 10:20:48;;;;;;;7.13;3.28;;;12.00;77.00;;;;;;4992477;28;20026;-71
2023/04/19 10:23:14;;;;;;;5.88;2.97;;;12.00;77.10;;;;;;4994226;28;20038;-70
2023/04/19 10:25:44;;;;;;;7.10;3.72;;;12.00;77.10;;;;;;4993207;28;21501;-70
2023/04/19 10:28:09;;;;;;;5.45;2.70;;;12.10;77.00;;;;;;4993905;28;20030;-69
2023/04/19 10:30:35;;;;;;;6.53;3.15;;;12.20;77.80;;;;;;4993633;28;20026;-69
2023/04/19 10:33:03;;;;;;;7.30;3.13;;;12.30;78.00;;;;;;4993400;28;20669;-70
2023/04/19 10:35:36;;;;;;;5.15;2.53;;;12.50;77.90;;;;;;4993557;28;20072;-70
2023/04/19 10:38:07;;;;;;;5.07;2.60;;;12.50;77.20;;;;;;4992946;28;20425;-70
2023/04/19 10:40:51;;;;;;;7.88;2.75;;;12.50;77.40;;;;;;4992593;28;20026;-69
2023/04/19 10:43:18;;;;;;;7.60;2.87;;;12.60;77.00;;;;;;4994895;28;20160;-70
2023/04/19 10:45:45;;;;;;;7.75;3.42;;;12.60;77.10;;;;;;4997477;28;20026;-69
2023/04/19 10:48:53;;;;;;;5.63;3.30;;;12.60;75.30;;;;;;4997217;28;20030;-70
2023/04/19 10:51:32;;;;;;;9.05;4.05;;;12.60;75.60;;;;;;4997058;28;20038;-69
2023/04/19 10:54:00;;;;;;;6.70;3.42;;;12.50;74.90;;;;;;4996434;28;20053;-69
2023/04/19 10:56:32;;;;;;;4.88;2.60;;;12.50;75.60;;;;;;4998208;28;20034;-69
2023/04/19 10:59:00;;;;;;;7.03;4.00;;;12.50;75.30;;;;;;5010541;28;20039;-70
2023/04/19 11:01:38;;;;;;;5.50;3.30;;;12.40;75.40;;;;;;4998632;28;20552;-70
2023/04/19 11:04:08;;;;;;;5.88;3.35;;;12.50;75.40;;;;;;4995336;28;20172;-70
2023/04/19 11:06:35;;;;;;;5.20;3.00;;;12.50;75.20;;;;;;4996867;28;20026;-70
2023/04/19 11:09:04;;;;;;;5.28;3.13;;;12.50;75.50;;;;;;4997878;28;20208;-71
2023/04/19 11:11:35;;;;;;;9.57;2.90;;;12.50;75.50;;;;;;4995361;28;20117;-70
2023/04/19 11:14:03;;;;;;;6.78;2.78;;;12.60;75.50;;;;;;4996791;28;20501;-70
2023/04/19 11:16:31;;;;;;;6.70;3.63;;;12.60;75.90;;;;;;4996658;28;20099;-71
2023/04/19 11:18:57;;;;;;;6.65;3.55;;;12.70;76.10;;;;;;4995404;28;20034;-70
2023/04/19 11:21:22;;;;;;;5.65;3.08;;;12.80;76.30;;;;;;4996077;28;20466;-70
2023/04/19 11:24:04;;;;;;;8.02;3.55;;;12.80;75.20;;;;;;4997172;28;20057;-70
2023/04/19 11:26:30;;;;;;;7.78;3.50;;;12.80;74.80;;;;;;4996911;28;20033;-71
2023/04/19 11:28:55;;;;;;;6.18;3.03;;;12.80;75.40;;;;;;4988892;28;20505;-71
2023/04/19 11:31:22;;;;;;;5.75;2.95;;;12.80;75.00;;;;;;4997148;28;20427;-70
2023/04/19 11:33:47;;;;;;;6.03;3.63;;;12.80;75.10;;;;;;4998193;28;20034;-71
2023/04/19 11:36:13;;;;;;;6.15;3.42;;;12.80;75.10;;;;;;4997704;28;20022;-70
2023/04/19 11:38:39;;;;;;;8.15;3.65;;;12.90;75.50;;;;;;4997084;28;20052;-70
2023/04/19 11:41:05;;;;;;;4.70;3.05;;;12.90;75.20;;;;;;4998062;28;20108;-70
2023/04/19 11:43:36;;;;;;;5.57;3.10;;;12.90;75.20;;;;;;4997383;28;20406;-70
2023/04/19 11:46:10;;;;;;;6.50;3.38;;;12.90;74.50;;;;;;4996839;28;20038;-71
2023/04/19 11:48:36;;;;;;;4.75;2.88;;;13.00;74.20;;;;;;4995947;28;20066;-70
2023/04/19 11:51:03;;;;;;;7.80;3.45;;;13.00;74.50;;;;;;4996266;28;20053;-71
2023/04/19 11:53:30;;;;;;;5.15;2.90;;;13.00;73.80;;;;;;4995910;28;20037;-70
2023/04/19 11:56:06;;;;;;;5.85;2.83;;;12.90;73.20;;;;;;5003785;28;20030;-70
2023/04/19 11:58:35;;;;;;;6.82;3.25;;;12.90;73.50;;;;;;4999318;28;20049;-69
2023/04/19 12:01:08;;;;;;;6.05;2.92;;;12.90;73.50;;;;;;4996821;28;20936;-70
2023/04/19 12:03:40;;;;;;;5.50;2.92;;;13.00;73.90;;;;;;5010625;28;20034;-70
2023/04/19 12:06:09;;;;;;;8.40;2.90;;;13.00;73.90;;;;;;4996464;28;20036;-70
2023/04/19 12:08:37;;;;;;;5.10;2.78;;;13.20;72.70;;;;;;4994189;28;20114;-70
2023/04/19 12:11:04;;;;;;;7.35;2.78;;;13.20;72.60;;;;;;4995168;28;20447;-70
2023/04/19 12:13:31;;;;;;;4.82;3.00;;;13.40;73.40;;;;;;4996445;28;20037;-69
2023/04/19 12:15:57;;;;;;;6.43;2.95;;;13.40;73.30;;;;;;4998187;28;20042;-71
2023/04/19 12:18:23;;;;;;;8.07;3.30;;;13.50;71.40;;;;;;4996890;28;20030;-70
2023/04/19 12:20:50;;;;;;;4.75;2.83;;;13.40;71.30;;;;;;4994916;28;20034;-69
2023/04/19 12:23:17;;;;;;;6.55;3.42;;;13.40;71.10;;;;;;4993111;28;20049;-69
2023/04/19 12:25:46;;;;;;;7.88;2.88;;;13.30;70.80;;;;;;4994966;28;20030;-70
2023/04/19 12:28:12;;;;;;;5.85;2.55;;;13.30;71.40;;;;;;4994131;28;20034;-69
2023/04/19 12:30:39;;;;;;;5.68;2.70;;;13.30;71.70;;;;;;4996601;28;20069;-69
2023/04/19 12:33:08;;;;;;;5.90;2.88;;;13.30;71.70;;;;;;5000565;28;20045;-70
2023/04/19 12:35:34;;;;;;;3.75;2.50;;;13.40;71.70;;;;;;4998234;28;20041;-71
2023/04/19 12:38:02;;;;;;;6.28;3.20;;;13.40;71.70;;;;;;4996822;28;20131;-69
2023/04/19 12:40:29;;;;;;;6.75;2.78;;;13.50;72.00;;;;;;4998169;28;20037;-70
2023/04/19 12:42:55;;;;;;;6.57;3.70;;;13.50;71.20;;;;;;4999660;28;20046;-71
2023/04/19 12:45:20;;;;;;;8.30;3.70;;;13.50;71.30;;;;;;4997831;28;20045;-70
2023/04/19 12:47:49;;;;;;;5.70;2.95;;;13.50;70.90;;;;;;4996719;28;20131;-71
2023/04/19 12:50:15;;;;;;;9.68;3.20;;;13.60;71.20;;;;;;4997486;28;20025;-70